createdAt,value
2024-02-20T07:12:47.947Z,100543.80
2024-02-20T07:15:19.679Z,100538.80
2024-02-20T07:17:52.127Z,100543.40
2024-02-20T07:20:27.232Z,100543.20
2024-02-20T07:23:00.411Z,100542.20
2024-02-20T07:25:31.519Z,100544.60
2024-02-20T07:28:02.324Z,100548.80
2024-02-20T07:30:32.434Z,100549.60
2024-02-20T07:33:02.093Z,100556.00
2024-02-20T07:35:32.797Z,100557.20
2024-02-20T07:38:02.557Z,100559.80
2024-02-20T07:40:32.342Z,100557.80
2024-02-20T07:43:03.093Z,100554.80
2024-02-20T07:45:32.491Z,100564.00
2024-02-20T07:48:02.647Z,100566.80
2024-02-20T07:50:33.700Z,100570.20
2024-02-20T07:53:04.025Z,100565.20
2024-02-20T07:55:34.265Z,100568.00
2024-02-20T07:58:04.501Z,100566.60
2024-02-20T08:00:34.123Z,100567.00
2024-02-20T08:03:04.263Z,100566.20
2024-02-20T08:05:34.377Z,100565.20
2024-02-20T08:08:04.579Z,100565.80
2024-02-20T08:10:34.646Z,100564.80
2024-02-20T08:13:04.807Z,100566.20
2024-02-20T08:15:35.002Z,100566.60
2024-02-20T08:18:06.029Z,100563.80
2024-02-20T08:20:36.019Z,100568.40
2024-02-20T08:23:06.075Z,100572.20
2024-02-20T08:25:35.854Z,100573.40
2024-02-20T08:28:05.850Z,100568.40
2024-02-20T08:30:35.405Z,100567.00
2024-02-20T08:33:05.206Z,100566.20
2024-02-20T08:35:35.205Z,100573.80
2024-02-20T08:38:06.124Z,100573.20
2024-02-20T08:40:36.754Z,100567.00
2024-02-20T08:43:06.555Z,100567.00
2024-02-20T08:45:36.561Z,100567.00
2024-02-20T08:48:07.008Z,100563.80
2024-02-20T08:50:37.914Z,100572.60
2024-02-20T08:53:12.271Z,100576.00
2024-02-20T08:55:42.808Z,100575.40
2024-02-20T08:58:13.115Z,100579.60
2024-02-20T09:00:43.059Z,100579.80
2024-02-20T09:03:12.877Z,100576.40
2024-02-20T09:05:43.625Z,100569.40
2024-02-20T09:08:14.418Z,100563.40
2024-02-20T09:10:45.370Z,100568.40
2024-02-20T09:13:15.843Z,100572.20
2024-02-20T09:15:47.600Z,100580.00
2024-02-20T09:18:17.557Z,100586.00
2024-02-20T09:20:47.360Z,100584.60
2024-02-20T09:23:17.033Z,100585.60
2024-02-20T09:25:47.796Z,100590.00
2024-02-20T09:28:17.714Z,100593.20
2024-02-20T09:30:47.692Z,100591.60
2024-02-20T09:33:20.644Z,100590.60
2024-02-20T09:35:51.098Z,100593.40
2024-02-20T09:38:21.401Z,100596.20
2024-02-20T09:40:51.849Z,100600.20
2024-02-20T09:43:21.821Z,100594.80
2024-02-20T09:45:53.699Z,100603.80
2024-02-20T09:48:25.820Z,100599.60
2024-02-20T09:51:02.244Z,100595.60
2024-02-20T09:53:36.995Z,100596.20
2024-02-20T09:56:08.636Z,100595.20
2024-02-20T09:58:43.729Z,100597.20
2024-02-20T10:01:18.958Z,100596.60
2024-02-20T10:04:07.018Z,100592.80
2024-02-20T10:06:41.433Z,100590.40
2024-02-20T10:09:10.958Z,100593.80
2024-02-20T10:11:42.694Z,100594.80
2024-02-20T10:14:12.417Z,100586.40
2024-02-20T10:16:45.176Z,100593.40
2024-02-20T10:19:22.257Z,100594.20
2024-02-20T10:21:55.126Z,100597.40
2024-02-20T10:24:31.694Z,100593.20
2024-02-20T10:27:05.216Z,100599.60
2024-02-20T10:29:35.093Z,100599.00
2024-02-20T10:32:04.771Z,100594.60
2024-02-20T10:34:34.403Z,100600.60
2024-02-20T10:37:08.138Z,100595.40
2024-02-20T10:39:37.757Z,100592.80
2024-02-20T10:42:11.074Z,100600.40
2024-02-20T10:44:44.743Z,100589.80
2024-02-20T10:47:17.983Z,100595.60
2024-02-20T10:49:49.136Z,100592.20
2024-02-20T10:52:19.578Z,100590.80
2024-02-20T10:55:02.664Z,100583.80
2024-02-20T10:57:43.474Z,100577.00
2024-02-20T11:00:14.802Z,100578.60
2024-02-20T11:02:47.808Z,100571.40
2024-02-20T11:05:19.799Z,100573.80
2024-02-20T11:07:49.881Z,100575.80
2024-02-20T11:10:23.703Z,100584.60
2024-02-20T11:12:53.977Z,100575.80
2024-02-20T11:15:31.104Z,100583.00
2024-02-20T11:18:00.579Z,100574.00
2024-02-20T11:20:30.474Z,100582.20
2024-02-20T11:23:12.289Z,100581.40
2024-02-20T11:25:45.856Z,100578.20
2024-02-20T11:28:18.324Z,100583.60
2024-02-20T11:30:49.413Z,100579.20
2024-02-20T11:33:20.947Z,100577.80
2024-02-20T11:35:51.089Z,100580.20
2024-02-20T11:38:23.329Z,100577.00
2024-02-20T11:40:53.348Z,100581.60
2024-02-20T11:43:24.253Z,100581.00
2024-02-20T11:46:02.809Z,100583.40
2024-02-20T11:48:33.685Z,100585.40
2024-02-20T11:51:04.257Z,100577.00
2024-02-20T11:53:34.294Z,100579.40
2024-02-20T11:56:03.965Z,100582.80
2024-02-20T11:58:33.814Z,100576.20
2024-02-20T12:01:07.979Z,100568.40
2024-02-20T12:03:39.231Z,100563.60
2024-02-20T12:06:11.473Z,100565.00
2024-02-20T12:08:48.185Z,100565.40
2024-02-20T12:11:22.614Z,100569.00
2024-02-20T12:13:53.561Z,100565.60
2024-02-20T12:16:28.455Z,100568.20
2024-02-20T12:21:35.137Z,100564.20
2024-02-20T12:24:09.338Z,100566.40
2024-02-20T12:26:39.170Z,100560.80
2024-02-20T12:29:08.819Z,100567.00
2024-02-20T12:31:38.445Z,100561.20
2024-02-20T12:34:08.757Z,100561.60
2024-02-20T12:36:40.202Z,100560.80
2024-02-20T12:39:09.524Z,100572.40
2024-02-20T12:41:40.409Z,100570.20
2024-02-20T12:44:10.156Z,100572.80
2024-02-20T12:46:41.689Z,100581.80
2024-02-20T12:49:11.108Z,100586.60
2024-02-20T12:51:41.273Z,100580.00
2024-02-20T12:54:11.344Z,100577.60
2024-02-20T12:56:41.486Z,100574.20
2024-02-20T12:59:11.534Z,100575.60
2024-02-20T13:01:41.434Z,100583.20
2024-02-20T13:04:11.864Z,100587.20
2024-02-20T13:06:41.746Z,100598.20
2024-02-20T13:09:12.656Z,100587.60
2024-02-20T13:11:44.174Z,100595.20
2024-02-20T13:14:14.319Z,100586.60
2024-02-20T13:16:47.288Z,100592.80
2024-02-20T13:19:18.165Z,100591.80
2024-02-20T13:21:48.136Z,100594.40
2024-02-20T13:24:18.030Z,100595.00
2024-02-20T13:26:49.185Z,100596.40
2024-02-20T13:29:18.748Z,100598.20
2024-02-20T13:34:49.844Z,100594.80
2024-02-20T13:37:20.088Z,100598.80
2024-02-20T13:39:50.728Z,100591.60
2024-02-20T13:42:21.608Z,100594.20
2024-02-20T13:44:51.883Z,100598.00
2024-02-20T13:47:24.794Z,100589.20
2024-02-20T13:49:55.109Z,100593.80
2024-02-20T13:52:25.091Z,100598.40
2024-02-20T13:54:54.850Z,100602.20
2024-02-20T13:57:24.239Z,100596.20
2024-02-20T13:59:53.881Z,100598.00
2024-02-20T14:02:23.895Z,100596.20
2024-02-20T14:04:53.573Z,100598.40
2024-02-20T14:07:23.807Z,100604.00
2024-02-20T14:09:54.241Z,100605.20
2024-02-20T14:12:26.063Z,100612.00
2024-02-20T14:14:57.609Z,100608.40
2024-02-20T14:17:28.393Z,100610.60
2024-02-20T14:19:58.347Z,100611.20
2024-02-20T14:22:28.676Z,100615.00
2024-02-20T14:24:59.435Z,100622.40
2024-02-20T14:27:30.259Z,100625.80
2024-02-20T14:30:00.364Z,100625.40
2024-02-20T14:32:30.546Z,100619.20
2024-02-20T14:35:00.247Z,100624.20
2024-02-20T14:37:30.081Z,100625.80
2024-02-20T14:40:00.162Z,100630.40
2024-02-20T14:42:30.718Z,100631.40
2024-02-20T14:45:02.654Z,100633.20
2024-02-20T14:47:33.449Z,100632.80
2024-02-20T14:50:02.941Z,100635.80
2024-02-20T14:52:32.602Z,100639.00
2024-02-20T14:55:02.520Z,100641.80
2024-02-20T14:57:32.144Z,100642.00
2024-02-20T15:00:01.882Z,100645.00
2024-02-20T15:02:31.576Z,100647.40
2024-02-20T15:05:02.025Z,100651.40
2024-02-20T15:07:31.940Z,100653.60
2024-02-20T15:10:01.596Z,100657.80
2024-02-20T15:12:33.297Z,100677.00
2024-02-20T15:15:03.237Z,100679.60
2024-02-20T15:17:37.683Z,100675.40
2024-02-20T15:20:09.313Z,100685.40
2024-02-20T15:22:42.894Z,100682.80
2024-02-20T15:25:18.287Z,100690.40
2024-02-20T15:27:50.959Z,100687.60
2024-02-20T15:30:22.200Z,100692.40
2024-02-20T15:32:52.440Z,100698.40
2024-02-20T15:35:25.629Z,100692.60
2024-02-20T15:37:55.461Z,100696.60
2024-02-20T15:40:25.149Z,100699.00
2024-02-20T15:42:56.169Z,100708.40
2024-02-20T15:45:26.184Z,100720.00
2024-02-20T15:47:56.157Z,100726.20
2024-02-20T15:50:26.102Z,100716.00
2024-02-20T15:52:56.035Z,100719.80
2024-02-20T15:55:26.107Z,100713.80
2024-02-20T15:57:55.703Z,100718.60
2024-02-20T16:00:25.784Z,100719.40
2024-02-20T16:02:55.074Z,100719.00
2024-02-20T16:05:25.470Z,100725.20
2024-02-20T16:08:00.223Z,100728.00
2024-02-20T16:10:29.808Z,100724.80
2024-02-20T16:13:02.646Z,100731.00
2024-02-20T16:15:35.420Z,100731.80
2024-02-20T16:18:05.495Z,100740.60
2024-02-20T16:20:35.509Z,100752.40
2024-02-20T16:23:05.322Z,100762.80
2024-02-20T16:25:35.066Z,100755.80
2024-02-20T16:28:05.051Z,100756.60
2024-02-20T16:30:35.141Z,100762.40
2024-02-20T16:33:05.126Z,100765.60
2024-02-20T16:35:35.344Z,100766.40
2024-02-20T16:38:05.004Z,100769.80
2024-02-20T16:40:35.287Z,100774.40
2024-02-20T16:43:05.873Z,100775.60
2024-02-20T16:45:36.174Z,100782.40
2024-02-20T16:48:07.279Z,100786.60
2024-02-20T16:50:37.627Z,100794.20
2024-02-20T16:53:07.853Z,100793.00
2024-02-20T16:55:37.650Z,100793.80
2024-02-20T16:58:07.240Z,100796.00
2024-02-20T17:00:36.725Z,100798.20
2024-02-20T17:03:08.408Z,100803.20
2024-02-20T17:05:38.444Z,100811.40
2024-02-20T17:08:09.561Z,100807.40
2024-02-20T17:10:39.300Z,100803.00
2024-02-20T17:13:09.920Z,100806.00
2024-02-20T17:15:39.136Z,100796.60
2024-02-20T17:18:08.703Z,100793.60
2024-02-20T17:20:39.664Z,100793.20
2024-02-20T17:23:10.045Z,100799.80
2024-02-20T17:25:41.304Z,100801.20
2024-02-20T17:28:11.118Z,100794.40
2024-02-20T17:30:40.974Z,100794.80
2024-02-20T17:33:10.948Z,100794.40
2024-02-20T17:35:40.950Z,100794.60
2024-02-20T17:38:10.597Z,100801.00
2024-02-20T17:40:40.427Z,100802.20
2024-02-20T17:43:10.265Z,100802.60
2024-02-20T17:45:39.947Z,100803.80
2024-02-20T17:48:09.829Z,100803.00
2024-02-20T17:50:39.276Z,100804.40
2024-02-20T17:53:09.917Z,100809.80
2024-02-20T17:55:39.882Z,100812.60
2024-02-20T17:58:09.700Z,100815.00
2024-02-20T18:00:39.361Z,100816.80
2024-02-20T18:03:09.279Z,100818.60
2024-02-20T18:05:38.768Z,100820.00
2024-02-20T18:08:08.999Z,100818.20
2024-02-20T18:10:38.413Z,100818.20
2024-02-20T18:13:08.088Z,100814.20
2024-02-20T18:15:38.045Z,100817.20
2024-02-20T18:18:08.082Z,100815.20
2024-02-20T18:20:38.042Z,100817.20
2024-02-20T18:23:08.250Z,100821.40
2024-02-20T18:25:38.241Z,100818.00
2024-02-20T18:28:08.096Z,100820.00
2024-02-20T18:30:38.438Z,100821.60
2024-02-20T18:33:08.110Z,100820.80
2024-02-20T18:35:37.808Z,100825.60
2024-02-20T18:38:08.841Z,100822.20
2024-02-20T18:40:38.973Z,100825.80
2024-02-20T18:43:09.075Z,100828.40
2024-02-20T18:45:39.245Z,100827.00
2024-02-20T18:48:12.041Z,100824.20
2024-02-20T18:50:42.675Z,100827.00
2024-02-20T18:53:12.949Z,100829.20
2024-02-20T18:55:42.913Z,100828.80
2024-02-20T18:58:12.693Z,100824.80
2024-02-20T19:00:43.729Z,100824.40
2024-02-20T19:03:13.548Z,100828.60
2024-02-20T19:05:43.723Z,100824.60
2024-02-20T19:08:13.312Z,100824.60
2024-02-20T19:10:43.330Z,100829.20
2024-02-20T19:13:14.187Z,100828.40
2024-02-20T19:15:44.260Z,100831.00
2024-02-20T19:18:15.049Z,100829.00
2024-02-20T19:20:45.574Z,100829.80
2024-02-20T19:23:15.277Z,100831.80
2024-02-20T19:25:45.791Z,100831.40
2024-02-20T19:28:15.383Z,100829.00
2024-02-20T19:30:45.569Z,100830.00
2024-02-20T19:33:16.034Z,100824.60
2024-02-20T19:35:47.164Z,100820.80
2024-02-20T19:38:19.711Z,100816.60
2024-02-20T19:40:52.130Z,100817.60
2024-02-20T19:43:22.952Z,100819.80
2024-02-20T19:45:53.605Z,100812.20
2024-02-20T19:48:25.956Z,100815.00
2024-02-20T19:50:56.013Z,100812.40
2024-02-20T19:53:27.389Z,100816.60
2024-02-20T19:55:58.983Z,100813.40
2024-02-20T19:58:31.263Z,100814.80
2024-02-20T20:01:01.759Z,100816.20
2024-02-20T20:03:32.345Z,100819.40
2024-02-20T20:06:07.524Z,100818.40
2024-02-20T20:08:42.014Z,100819.40
2024-02-20T20:11:12.389Z,100819.80
2024-02-20T20:13:42.345Z,100823.20
2024-02-20T20:16:12.992Z,100820.00
2024-02-20T20:18:43.035Z,100816.20
2024-02-20T20:21:12.921Z,100814.60
2024-02-20T20:23:43.535Z,100818.00
2024-02-20T20:26:13.379Z,100816.00
2024-02-20T20:28:43.110Z,100821.60
2024-02-20T20:31:13.302Z,100816.80
2024-02-20T20:33:44.156Z,100818.60
2024-02-20T20:36:14.652Z,100819.60
2024-02-20T20:38:45.275Z,100817.80
2024-02-20T20:41:15.119Z,100819.20
2024-02-20T20:43:45.588Z,100814.00
2024-02-20T20:46:15.973Z,100819.20
2024-02-20T20:48:46.517Z,100815.80
2024-02-20T20:51:16.517Z,100813.40
2024-02-20T20:53:46.947Z,100812.00
2024-02-20T20:56:16.638Z,100806.00
2024-02-20T20:58:46.714Z,100810.60
2024-02-20T21:01:18.038Z,100807.40
2024-02-20T21:03:47.933Z,100810.00
2024-02-20T21:06:20.977Z,100817.20
2024-02-20T21:08:51.732Z,100819.40
2024-02-20T21:11:21.652Z,100818.60
2024-02-20T21:13:51.283Z,100827.00
2024-02-20T21:16:23.132Z,100831.20
2024-02-20T21:18:54.217Z,100829.40
2024-02-20T21:21:25.047Z,100832.20
2024-02-20T21:23:55.236Z,100826.60
2024-02-20T21:26:25.359Z,100829.00
2024-02-20T21:28:55.751Z,100828.20
2024-02-20T21:31:25.346Z,100818.00
2024-02-20T21:33:56.110Z,100819.40
2024-02-20T21:36:26.328Z,100820.60
2024-02-20T21:38:55.911Z,100818.00
2024-02-20T21:41:25.948Z,100812.20
2024-02-20T21:43:55.916Z,100811.80
2024-02-20T21:46:26.682Z,100807.20
2024-02-20T21:48:56.951Z,100809.20
2024-02-20T21:51:30.138Z,100809.00
2024-02-20T21:54:03.207Z,100812.00
2024-02-20T21:56:33.298Z,100809.80
2024-02-20T21:59:02.886Z,100803.60
2024-02-20T22:01:32.541Z,100805.00
2024-02-20T22:04:03.493Z,100800.80
2024-02-20T22:06:33.636Z,100801.00
2024-02-20T22:09:04.116Z,100795.00
2024-02-20T22:11:34.435Z,100788.80
2024-02-20T22:14:05.046Z,100789.20
2024-02-20T22:16:34.598Z,100792.00
2024-02-20T22:19:10.054Z,100795.60
2024-02-20T22:21:39.807Z,100796.20
2024-02-20T22:24:09.333Z,100795.00
2024-02-20T22:26:39.406Z,100795.80
2024-02-20T22:29:08.867Z,100797.00
2024-02-20T22:31:38.905Z,100797.60
2024-02-20T22:34:08.573Z,100793.80
2024-02-20T22:36:38.614Z,100798.80
2024-02-20T22:39:08.834Z,100793.00
2024-02-20T22:41:38.451Z,100794.60
2024-02-20T22:44:09.210Z,100794.40
2024-02-20T22:46:40.032Z,100795.80
2024-02-20T22:49:12.208Z,100794.80
2024-02-20T22:51:42.336Z,100787.20
2024-02-20T22:54:12.437Z,100787.20
2024-02-20T22:56:43.431Z,100792.00
